sensor_id;sensor_type;location;lat;lon;timestamp;temperature;humidity
21834;DHT22;11079;51.092;3.458;2022-07-29T00:00:09;19.80;99.90
21834;DHT22;11079;51.092;3.458;2022-07-29T00:02:36;19.70;99.90
21834;DHT22;11079;51.092;3.458;2022-07-29T00:05:03;19.50;99.90
21834;DHT22;11079;51.092;3.458;2022-07-29T00:07:29;19.60;99.90
21834;DHT22;11079;51.092;3.458;2022-07-29T00:09:54;19.70;99.90
21834;DHT22;11079;51.092;3.458;2022-07-29T00:12:22;19.70;99.90
21834;DHT22;11079;51.092;3.458;2022-07-29T00:14:49;19.70;99.90
21834;DHT22;11079;51.092;3.458;2022-07-29T00:17:14;19.80;99.90
21834;DHT22;11079;51.092;3.458;2022-07-29T00:19:40;19.70;99.90
21834;DHT22;11079;51.092;3.458;2022-07-29T00:22:06;19.70;99.90
21834;DHT22;11079;51.092;3.458;2022-07-29T00:24:31;19.80;99.90
21834;DHT22;11079;51.092;3.458;2022-07-29T00:26:57;19.70;99.90
21834;DHT22;11079;51.092;3.458;2022-07-29T00:29:23;19.50;99.90
21834;DHT22;11079;51.092;3.458;2022-07-29T00:31:49;19.50;99.90
21834;DHT22;11079;51.092;3.458;2022-07-29T00:34:20;19.40;99.90
21834;DHT22;11079;51.092;3.458;2022-07-29T00:37:04;19.30;99.90
21834;DHT22;11079;51.092;3.458;2022-07-29T00:39:30;19.30;99.90
21834;DHT22;11079;51.092;3.458;2022-07-29T00:41:55;19.30;99.90
21834;DHT22;11079;51.092;3.458;2022-07-29T00:44:21;19.20;99.90
21834;DHT22;11079;51.092;3.458;2022-07-29T00:46:49;19.00;99.90
21834;DHT22;11079;51.092;3.458;2022-07-29T00:49:15;18.80;99.90
21834;DHT22;11079;51.092;3.458;2022-07-29T00:51:41;18.80;99.90
21834;DHT22;11079;51.092;3.458;2022-07-29T00:54:07;18.70;99.90
21834;DHT22;11079;51.092;3.458;2022-07-29T00:56:33;18.60;99.90
21834;DHT22;11079;51.092;3.458;2022-07-29T00:58:59;18.60;99.90
21834;DHT22;11079;51.092;3.458;2022-07-29T01:01:26;18.50;99.90
21834;DHT22;11079;51.092;3.458;2022-07-29T01:03:52;18.40;99.90
21834;DHT22;11079;51.092;3.458;2022-07-29T01:06:18;18.30;99.90
21834;DHT22;11079;51.092;3.458;2022-07-29T01:08:45;18.30;99.90
21834;DHT22;11079;51.092;3.458;2022-07-29T01:11:15;18.20;99.90
21834;DHT22;11079;51.092;3.458;2022-07-29T01:13:43;18.10;99.90
21834;DHT22;11079;51.092;3.458;2022-07-29T01:16:27;18.10;99.90
21834;DHT22;11079;51.092;3.458;2022-07-29T01:19:04;18.10;99.90
21834;DHT22;11079;51.092;3.458;2022-07-29T01:21:43;18.00;99.90
21834;DHT22;11079;51.092;3.458;2022-07-29T01:30:07;17.90;99.90
21834;DHT22;11079;51.092;3.458;2022-07-29T01:32:36;17.90;99.90
21834;DHT22;11079;51.092;3.458;2022-07-29T01:35:06;17.90;99.90
21834;DHT22;11079;51.092;3.458;2022-07-29T01:37:52;17.80;99.90
21834;DHT22;11079;51.092;3.458;2022-07-29T01:40:25;17.80;99.90
21834;DHT22;11079;51.092;3.458;2022-07-29T01:42:55;17.70;99.90
21834;DHT22;11079;51.092;3.458;2022-07-29T01:48:03;17.50;99.90
21834;DHT22;11079;51.092;3.458;2022-07-29T01:50:37;17.60;99.90
21834;DHT22;11079;51.092;3.458;2022-07-29T01:53:08;17.50;99.90
21834;DHT22;11079;51.092;3.458;2022-07-29T01:55:40;17.50;99.90
21834;DHT22;11079;51.092;3.458;2022-07-29T01:58:07;17.40;99.90
21834;DHT22;11079;51.092;3.458;2022-07-29T02:00:34;17.50;99.90
21834;DHT22;11079;51.092;3.458;2022-07-29T02:03:13;17.40;99.90
21834;DHT22;11079;51.092;3.458;2022-07-29T02:05:41;17.30;99.90
21834;DHT22;11079;51.092;3.458;2022-07-29T02:08:10;17.30;99.90
21834;DHT22;11079;51.092;3.458;2022-07-29T02:10:38;17.30;99.90
21834;DHT22;11079;51.092;3.458;2022-07-29T02:13:05;17.20;99.90
21834;DHT22;11079;51.092;3.458;2022-07-29T02:15:34;17.10;99.90
21834;DHT22;11079;51.092;3.458;2022-07-29T02:18:07;17.10;99.90
21834;DHT22;11079;51.092;3.458;2022-07-29T02:20:34;17.10;99.90
21834;DHT22;11079;51.092;3.458;2022-07-29T02:23:02;17.00;99.90
21834;DHT22;11079;51.092;3.458;2022-07-29T02:25:29;17.10;99.90
21834;DHT22;11079;51.092;3.458;2022-07-29T02:27:55;17.00;99.90
21834;DHT22;11079;51.092;3.458;2022-07-29T02:30:23;16.90;99.90
21834;DHT22;11079;51.092;3.458;2022-07-29T02:32:49;17.00;99.90
21834;DHT22;11079;51.092;3.458;2022-07-29T02:35:20;17.00;99.90
21834;DHT22;11079;51.092;3.458;2022-07-29T02:37:48;17.00;99.90
21834;DHT22;11079;51.092;3.458;2022-07-29T02:40:38;16.90;99.90
21834;DHT22;11079;51.092;3.458;2022-07-29T02:43:06;16.80;99.90
21834;DHT22;11079;51.092;3.458;2022-07-29T02:45:33;16.80;99.90
21834;DHT22;11079;51.092;3.458;2022-07-29T02:48:01;16.80;99.90
21834;DHT22;11079;51.092;3.458;2022-07-29T02:50:37;16.70;99.90
21834;DHT22;11079;51.092;3.458;2022-07-29T02:53:14;16.60;99.90
21834;DHT22;11079;51.092;3.458;2022-07-29T02:56:10;16.60;99.90
21834;DHT22;11079;51.092;3.458;2022-07-29T02:58:41;16.70;99.90
21834;DHT22;11079;51.092;3.458;2022-07-29T03:01:16;16.70;99.90
21834;DHT22;11079;51.092;3.458;2022-07-29T03:03:46;16.60;99.90
21834;DHT22;11079;51.092;3.458;2022-07-29T03:06:15;16.50;99.90
21834;DHT22;11079;51.092;3.458;2022-07-29T03:08:41;16.50;99.90
21834;DHT22;11079;51.092;3.458;2022-07-29T03:11:08;16.50;99.90
21834;DHT22;11079;51.092;3.458;2022-07-29T03:13:36;16.50;99.90
21834;DHT22;11079;51.092;3.458;2022-07-29T03:16:02;16.40;99.90
21834;DHT22;11079;51.092;3.458;2022-07-29T03:18:30;16.40;99.90
21834;DHT22;11079;51.092;3.458;2022-07-29T03:20:56;16.40;99.90
21834;DHT22;11079;51.092;3.458;2022-07-29T03:23:22;16.30;99.90
21834;DHT22;11079;51.092;3.458;2022-07-29T03:25:52;16.30;99.90
21834;DHT22;11079;51.092;3.458;2022-07-29T03:28:18;16.20;99.90
21834;DHT22;11079;51.092;3.458;2022-07-29T03:30:45;16.20;99.90
21834;DHT22;11079;51.092;3.458;2022-07-29T03:33:10;16.10;99.90
21834;DHT22;11079;51.092;3.458;2022-07-29T03:35:36;16.10;99.90
21834;DHT22;11079;51.092;3.458;2022-07-29T03:38:02;16.10;99.90
21834;DHT22;11079;51.092;3.458;2022-07-29T03:40:34;16.10;99.90
21834;DHT22;11079;51.092;3.458;2022-07-29T03:43:03;16.00;99.90
21834;DHT22;11079;51.092;3.458;2022-07-29T03:45:32;16.10;99.90
21834;DHT22;11079;51.092;3.458;2022-07-29T03:48:08;16.00;99.90
21834;DHT22;11079;51.092;3.458;2022-07-29T03:50:36;16.00;99.90
21834;DHT22;11079;51.092;3.458;2022-07-29T03:53:03;16.00;99.90
21834;DHT22;11079;51.092;3.458;2022-07-29T03:55:33;15.90;99.90
21834;DHT22;11079;51.092;3.458;2022-07-29T03:58:02;16.00;99.90
21834;DHT22;11079;51.092;3.458;2022-07-29T04:00:29;15.90;99.90
21834;DHT22;11079;51.092;3.458;2022-07-29T04:02:56;15.90;99.90
21834;DHT22;11079;51.092;3.458;2022-07-29T04:05:21;15.80;99.90
21834;DHT22;11079;51.092;3.458;2022-07-29T04:07:48;15.90;99.90
21834;DHT22;11079;51.092;3.458;2022-07-29T04:10:14;15.80;99.90
21834;DHT22;11079;51.092;3.458;2022-07-29T04:12:44;15.80;99.90
21834;DHT22;11079;51.092;3.458;2022-07-29T04:15:11;15.80;99.90
21834;DHT22;11079;51.092;3.458;2022-07-29T04:17:38;15.80;99.90
21834;DHT22;11079;51.092;3.458;2022-07-29T04:20:04;15.70;99.90
21834;DHT22;11079;51.092;3.458;2022-07-29T04:22:30;15.70;99.90
21834;DHT22;11079;51.092;3.458;2022-07-29T04:24:56;15.60;99.90
21834;DHT22;11079;51.092;3.458;2022-07-29T04:27:22;15.60;99.90
21834;DHT22;11079;51.092;3.458;2022-07-29T04:29:48;15.70;99.90
21834;DHT22;11079;51.092;3.458;2022-07-29T04:32:14;15.70;99.90
21834;DHT22;11079;51.092;3.458;2022-07-29T04:34:40;15.70;99.90
21834;DHT22;11079;51.092;3.458;2022-07-29T04:37:08;15.60;99.90
21834;DHT22;11079;51.092;3.458;2022-07-29T04:39:34;15.60;99.90
21834;DHT22;11079;51.092;3.458;2022-07-29T04:41:59;15.70;99.90
21834;DHT22;11079;51.092;3.458;2022-07-29T04:44:25;15.60;99.90
21834;DHT22;11079;51.092;3.458;2022-07-29T04:46:51;15.70;99.90
21834;DHT22;11079;51.092;3.458;2022-07-29T04:49:17;15.80;99.90
21834;DHT22;11079;51.092;3.458;2022-07-29T04:51:43;15.90;99.90
21834;DHT22;11079;51.092;3.458;2022-07-29T04:54:08;16.00;99.90
21834;DHT22;11079;51.092;3.458;2022-07-29T04:56:34;16.10;99.90
21834;DHT22;11079;51.092;3.458;2022-07-29T04:59:01;16.20;99.90
21834;DHT22;11079;51.092;3.458;2022-07-29T05:01:27;16.40;99.90
21834;DHT22;11079;51.092;3.458;2022-07-29T05:03:53;16.50;99.90
21834;DHT22;11079;51.092;3.458;2022-07-29T05:06:18;16.60;99.90
21834;DHT22;11079;51.092;3.458;2022-07-29T05:08:47;16.70;99.90
21834;DHT22;11079;51.092;3.458;2022-07-29T05:11:12;16.90;99.90
21834;DHT22;11079;51.092;3.458;2022-07-29T05:13:39;17.50;99.90
21834;DHT22;11079;51.092;3.458;2022-07-29T05:16:05;18.30;99.90
21834;DHT22;11079;51.092;3.458;2022-07-29T05:18:30;19.20;99.90
21834;DHT22;11079;51.092;3.458;2022-07-29T05:20:57;20.10;99.90
21834;DHT22;11079;51.092;3.458;2022-07-29T05:23:23;20.70;99.90
21834;DHT22;11079;51.092;3.458;2022-07-29T05:25:49;21.30;99.90
21834;DHT22;11079;51.092;3.458;2022-07-29T05:28:17;22.00;99.90
21834;DHT22;11079;51.092;3.458;2022-07-29T05:30:43;22.50;99.90
21834;DHT22;11079;51.092;3.458;2022-07-29T05:33:10;23.00;99.90
21834;DHT22;11079;51.092;3.458;2022-07-29T05:35:39;23.50;99.90
21834;DHT22;11079;51.092;3.458;2022-07-29T05:38:04;24.00;99.90
21834;DHT22;11079;51.092;3.458;2022-07-29T05:40:30;24.60;99.90
21834;DHT22;11079;51.092;3.458;2022-07-29T05:42:56;25.10;99.90
21834;DHT22;11079;51.092;3.458;2022-07-29T05:45:22;25.60;99.90
21834;DHT22;11079;51.092;3.458;2022-07-29T05:47:48;25.90;99.90
21834;DHT22;11079;51.092;3.458;2022-07-29T05:50:14;26.30;99.90
21834;DHT22;11079;51.092;3.458;2022-07-29T05:52:43;26.80;99.90
21834;DHT22;11079;51.092;3.458;2022-07-29T05:55:09;27.10;99.90
21834;DHT22;11079;51.092;3.458;2022-07-29T05:57:34;27.70;99.90
21834;DHT22;11079;51.092;3.458;2022-07-29T06:00:00;28.00;99.90
21834;DHT22;11079;51.092;3.458;2022-07-29T06:02:26;28.20;99.90
21834;DHT22;11079;51.092;3.458;2022-07-29T06:04:56;28.50;99.90
21834;DHT22;11079;51.092;3.458;2022-07-29T06:07:21;28.80;99.90
21834;DHT22;11079;51.092;3.458;2022-07-29T06:09:47;29.10;99.90
21834;DHT22;11079;51.092;3.458;2022-07-29T06:12:13;29.50;99.90
21834;DHT22;11079;51.092;3.458;2022-07-29T06:14:40;29.80;99.90
21834;DHT22;11079;51.092;3.458;2022-07-29T06:17:06;29.90;99.90
21834;DHT22;11079;51.092;3.458;2022-07-29T06:19:34;30.00;99.90
21834;DHT22;11079;51.092;3.458;2022-07-29T06:22:01;30.10;99.90
21834;DHT22;11079;51.092;3.458;2022-07-29T06:24:30;30.40;99.90
21834;DHT22;11079;51.092;3.458;2022-07-29T06:26:56;31.10;99.90
21834;DHT22;11079;51.092;3.458;2022-07-29T06:29:23;31.10;99.90
21834;DHT22;11079;51.092;3.458;2022-07-29T06:31:48;31.30;99.90
21834;DHT22;11079;51.092;3.458;2022-07-29T06:34:14;31.50;99.90
21834;DHT22;11079;51.092;3.458;2022-07-29T06:36:40;31.90;99.90
21834;DHT22;11079;51.092;3.458;2022-07-29T06:39:06;32.20;99.90
21834;DHT22;11079;51.092;3.458;2022-07-29T06:41:32;31.80;99.80
21834;DHT22;11079;51.092;3.458;2022-07-29T06:43:58;31.10;99.90
21834;DHT22;11079;51.092;3.458;2022-07-29T06:46:24;31.10;99.90
21834;DHT22;11079;51.092;3.458;2022-07-29T06:48:50;31.60;99.80
21834;DHT22;11079;51.092;3.458;2022-07-29T06:51:17;32.40;98.20
21834;DHT22;11079;51.092;3.458;2022-07-29T06:53:43;33.30;96.90
21834;DHT22;11079;51.092;3.458;2022-07-29T06:56:09;32.50;96.50
21834;DHT22;11079;51.092;3.458;2022-07-29T06:58:35;32.70;96.60
21834;DHT22;11079;51.092;3.458;2022-07-29T07:01:03;33.00;96.50
21834;DHT22;11079;51.092;3.458;2022-07-29T07:03:29;33.20;96.00
21834;DHT22;11079;51.092;3.458;2022-07-29T07:05:55;33.20;94.80
21834;DHT22;11079;51.092;3.458;2022-07-29T07:08:21;33.50;94.40
21834;DHT22;11079;51.092;3.458;2022-07-29T07:10:47;33.50;93.90
21834;DHT22;11079;51.092;3.458;2022-07-29T07:13:13;33.30;94.00
21834;DHT22;11079;51.092;3.458;2022-07-29T07:15:40;33.40;93.60
21834;DHT22;11079;51.092;3.458;2022-07-29T07:18:06;33.80;92.90
21834;DHT22;11079;51.092;3.458;2022-07-29T07:20:33;34.10;92.10
21834;DHT22;11079;51.092;3.458;2022-07-29T07:22:59;34.70;91.50
21834;DHT22;11079;51.092;3.458;2022-07-29T07:25:25;35.30;90.60
21834;DHT22;11079;51.092;3.458;2022-07-29T07:27:51;35.30;89.10
21834;DHT22;11079;51.092;3.458;2022-07-29T07:30:17;35.80;89.80
21834;DHT22;11079;51.092;3.458;2022-07-29T07:32:42;36.20;87.40
21834;DHT22;11079;51.092;3.458;2022-07-29T07:35:09;36.30;85.60
21834;DHT22;11079;51.092;3.458;2022-07-29T07:37:36;36.70;84.10
21834;DHT22;11079;51.092;3.458;2022-07-29T07:40:03;37.10;82.80
21834;DHT22;11079;51.092;3.458;2022-07-29T07:42:29;37.10;81.70
21834;DHT22;11079;51.092;3.458;2022-07-29T07:44:54;37.00;81.00
21834;DHT22;11079;51.092;3.458;2022-07-29T07:47:20;37.10;78.50
21834;DHT22;11079;51.092;3.458;2022-07-29T07:49:50;37.40;78.50
21834;DHT22;11079;51.092;3.458;2022-07-29T07:52:17;36.90;78.50
21834;DHT22;11079;51.092;3.458;2022-07-29T07:54:43;37.40;78.30
21834;DHT22;11079;51.092;3.458;2022-07-29T07:57:10;37.90;77.70
21834;DHT22;11079;51.092;3.458;2022-07-29T07:59:39;37.50;76.20
21834;DHT22;11079;51.092;3.458;2022-07-29T08:02:07;37.70;75.80
21834;DHT22;11079;51.092;3.458;2022-07-29T08:04:33;38.20;73.30
21834;DHT22;11079;51.092;3.458;2022-07-29T08:07:00;38.10;74.10
21834;DHT22;11079;51.092;3.458;2022-07-29T08:09:27;38.50;74.30
21834;DHT22;11079;51.092;3.458;2022-07-29T08:11:53;38.70;72.90
21834;DHT22;11079;51.092;3.458;2022-07-29T08:14:19;39.20;71.20
21834;DHT22;11079;51.092;3.458;2022-07-29T08:16:45;39.40;70.40
21834;DHT22;11079;51.092;3.458;2022-07-29T08:19:10;39.70;68.20
21834;DHT22;11079;51.092;3.458;2022-07-29T08:21:36;39.40;67.50
21834;DHT22;11079;51.092;3.458;2022-07-29T08:24:04;39.70;67.10
21834;DHT22;11079;51.092;3.458;2022-07-29T08:26:48;38.90;67.20
21834;DHT22;11079;51.092;3.458;2022-07-29T08:29:14;38.70;67.90
21834;DHT22;11079;51.092;3.458;2022-07-29T08:31:40;38.50;66.40
21834;DHT22;11079;51.092;3.458;2022-07-29T08:34:06;38.90;65.80
21834;DHT22;11079;51.092;3.458;2022-07-29T08:36:33;39.20;66.30
21834;DHT22;11079;51.092;3.458;2022-07-29T08:38:59;38.90;65.00
21834;DHT22;11079;51.092;3.458;2022-07-29T08:41:26;38.70;65.90
21834;DHT22;11079;51.092;3.458;2022-07-29T08:43:52;38.70;65.90
21834;DHT22;11079;51.092;3.458;2022-07-29T08:46:18;38.30;66.90
21834;DHT22;11079;51.092;3.458;2022-07-29T08:48:44;38.90;66.50
21834;DHT22;11079;51.092;3.458;2022-07-29T08:51:16;38.90;65.80
21834;DHT22;11079;51.092;3.458;2022-07-29T08:53:43;38.80;65.80
21834;DHT22;11079;51.092;3.458;2022-07-29T08:56:13;38.40;65.60
21834;DHT22;11079;51.092;3.458;2022-07-29T08:58:39;38.40;63.70
21834;DHT22;11079;51.092;3.458;2022-07-29T09:01:06;39.10;64.60
21834;DHT22;11079;51.092;3.458;2022-07-29T09:03:34;39.40;63.40
21834;DHT22;11079;51.092;3.458;2022-07-29T09:06:02;40.40;62.10
21834;DHT22;11079;51.092;3.458;2022-07-29T09:08:28;39.90;62.80
21834;DHT22;11079;51.092;3.458;2022-07-29T09:10:56;39.50;63.10
21834;DHT22;11079;51.092;3.458;2022-07-29T09:13:22;40.00;60.60
21834;DHT22;11079;51.092;3.458;2022-07-29T09:15:48;40.10;59.00
21834;DHT22;11079;51.092;3.458;2022-07-29T09:18:36;39.80;59.70
21834;DHT22;11079;51.092;3.458;2022-07-29T09:21:04;40.60;58.80
21834;DHT22;11079;51.092;3.458;2022-07-29T09:24:10;40.90;58.10
21834;DHT22;11079;51.092;3.458;2022-07-29T09:26:40;41.30;57.40
21834;DHT22;11079;51.092;3.458;2022-07-29T09:29:18;41.10;58.00
21834;DHT22;11079;51.092;3.458;2022-07-29T09:31:46;41.90;57.30
21834;DHT22;11079;51.092;3.458;2022-07-29T09:34:14;41.20;57.50
21834;DHT22;11079;51.092;3.458;2022-07-29T09:36:46;41.60;57.10
21834;DHT22;11079;51.092;3.458;2022-07-29T09:39:13;41.80;56.40
21834;DHT22;11079;51.092;3.458;2022-07-29T09:41:51;41.50;56.30
21834;DHT22;11079;51.092;3.458;2022-07-29T09:44:21;41.40;54.20
21834;DHT22;11079;51.092;3.458;2022-07-29T09:47:00;41.10;54.30
21834;DHT22;11079;51.092;3.458;2022-07-29T09:52:16;41.60;53.50
21834;DHT22;11079;51.092;3.458;2022-07-29T09:54:42;42.40;52.40
21834;DHT22;11079;51.092;3.458;2022-07-29T09:57:09;43.20;51.60
21834;DHT22;11079;51.092;3.458;2022-07-29T09:59:59;43.10;52.20
21834;DHT22;11079;51.092;3.458;2022-07-29T10:02:36;43.50;52.00
21834;DHT22;11079;51.092;3.458;2022-07-29T10:05:04;43.10;51.00
21834;DHT22;11079;51.092;3.458;2022-07-29T10:07:44;44.00;49.90
21834;DHT22;11079;51.092;3.458;2022-07-29T10:10:10;43.70;52.00
21834;DHT22;11079;51.092;3.458;2022-07-29T10:12:49;43.30;49.60
21834;DHT22;11079;51.092;3.458;2022-07-29T10:15:15;42.80;49.60
21834;DHT22;11079;51.092;3.458;2022-07-29T10:17:41;42.90;49.50
21834;DHT22;11079;51.092;3.458;2022-07-29T10:20:08;42.00;51.10
21834;DHT22;11079;51.092;3.458;2022-07-29T10:22:34;41.50;50.50
21834;DHT22;11079;51.092;3.458;2022-07-29T10:25:00;40.00;51.70
21834;DHT22;11079;51.092;3.458;2022-07-29T10:27:25;38.80;52.70
21834;DHT22;11079;51.092;3.458;2022-07-29T10:29:51;38.20;53.30
21834;DHT22;11079;51.092;3.458;2022-07-29T10:32:26;38.00;54.50
21834;DHT22;11079;51.092;3.458;2022-07-29T10:37:48;37.70;54.80
21834;DHT22;11079;51.092;3.458;2022-07-29T10:43:27;39.10;54.00
21834;DHT22;11079;51.092;3.458;2022-07-29T10:45:59;38.90;55.40
21834;DHT22;11079;51.092;3.458;2022-07-29T10:48:25;39.30;54.30
21834;DHT22;11079;51.092;3.458;2022-07-29T10:50:57;38.60;55.20
21834;DHT22;11079;51.092;3.458;2022-07-29T10:53:24;39.40;54.70
21834;DHT22;11079;51.092;3.458;2022-07-29T10:55:51;40.50;53.50
21834;DHT22;11079;51.092;3.458;2022-07-29T10:58:22;40.10;53.90
21834;DHT22;11079;51.092;3.458;2022-07-29T11:00:51;38.40;53.90
21834;DHT22;11079;51.092;3.458;2022-07-29T11:06:07;37.50;56.50
21834;DHT22;11079;51.092;3.458;2022-07-29T11:08:33;38.60;54.80
21834;DHT22;11079;51.092;3.458;2022-07-29T11:13:51;40.90;51.30
21834;DHT22;11079;51.092;3.458;2022-07-29T11:16:19;41.70;50.70
21834;DHT22;11079;51.092;3.458;2022-07-29T11:21:42;43.40;49.60
21834;DHT22;11079;51.092;3.458;2022-07-29T11:24:30;43.90;48.60
21834;DHT22;11079;51.092;3.458;2022-07-29T11:27:12;43.80;49.60
21834;DHT22;11079;51.092;3.458;2022-07-29T11:29:40;44.40;48.70
21834;DHT22;11079;51.092;3.458;2022-07-29T11:32:13;43.70;48.50
21834;DHT22;11079;51.092;3.458;2022-07-29T11:34:45;44.10;48.80
21834;DHT22;11079;51.092;3.458;2022-07-29T11:45:19;37.80;54.20
21834;DHT22;11079;51.092;3.458;2022-07-29T11:50:13;39.00;54.10
21834;DHT22;11079;51.092;3.458;2022-07-29T11:52:42;40.80;52.40
21834;DHT22;11079;51.092;3.458;2022-07-29T11:55:10;42.00;51.00
21834;DHT22;11079;51.092;3.458;2022-07-29T11:57:37;42.30;50.60
21834;DHT22;11079;51.092;3.458;2022-07-29T12:00:07;42.10;49.70
21834;DHT22;11079;51.092;3.458;2022-07-29T12:02:43;42.00;51.40
21834;DHT22;11079;51.092;3.458;2022-07-29T12:05:11;41.50;50.20
21834;DHT22;11079;51.092;3.458;2022-07-29T12:07:37;40.70;51.00
21834;DHT22;11079;51.092;3.458;2022-07-29T12:10:05;41.00;50.60
21834;DHT22;11079;51.092;3.458;2022-07-29T12:12:31;41.70;50.30
21834;DHT22;11079;51.092;3.458;2022-07-29T12:14:57;42.10;50.70
21834;DHT22;11079;51.092;3.458;2022-07-29T12:17:33;42.00;50.40
21834;DHT22;11079;51.092;3.458;2022-07-29T12:20:02;42.70;51.00
21834;DHT22;11079;51.092;3.458;2022-07-29T12:22:30;42.60;49.60
21834;DHT22;11079;51.092;3.458;2022-07-29T12:25:11;41.60;50.50
21834;DHT22;11079;51.092;3.458;2022-07-29T12:27:37;41.10;49.40
21834;DHT22;11079;51.092;3.458;2022-07-29T12:30:15;40.40;51.50
21834;DHT22;11079;51.092;3.458;2022-07-29T12:32:48;40.60;50.90
21834;DHT22;11079;51.092;3.458;2022-07-29T12:35:18;40.50;51.40
21834;DHT22;11079;51.092;3.458;2022-07-29T12:37:53;41.00;51.30
21834;DHT22;11079;51.092;3.458;2022-07-29T12:40:20;41.50;51.00
21834;DHT22;11079;51.092;3.458;2022-07-29T12:43:22;41.40;50.20
21834;DHT22;11079;51.092;3.458;2022-07-29T12:45:53;41.70;50.80
21834;DHT22;11079;51.092;3.458;2022-07-29T12:48:39;42.00;50.10
21834;DHT22;11079;51.092;3.458;2022-07-29T12:51:06;41.80;49.90
21834;DHT22;11079;51.092;3.458;2022-07-29T12:53:33;40.80;49.60
21834;DHT22;11079;51.092;3.458;2022-07-29T12:55:59;40.90;51.10
21834;DHT22;11079;51.092;3.458;2022-07-29T13:01:13;41.50;49.80
21834;DHT22;11079;51.092;3.458;2022-07-29T13:03:50;41.90;50.60
21834;DHT22;11079;51.092;3.458;2022-07-29T13:06:42;42.00;50.90
21834;DHT22;11079;51.092;3.458;2022-07-29T13:09:15;40.90;51.30
21834;DHT22;11079;51.092;3.458;2022-07-29T13:11:46;40.60;51.30
21834;DHT22;11079;51.092;3.458;2022-07-29T13:14:32;40.30;52.00
21834;DHT22;11079;51.092;3.458;2022-07-29T13:17:09;39.50;52.20
21834;DHT22;11079;51.092;3.458;2022-07-29T13:20:06;39.30;53.00
21834;DHT22;11079;51.092;3.458;2022-07-29T13:22:34;39.20;53.40
21834;DHT22;11079;51.092;3.458;2022-07-29T13:25:02;39.50;52.40
21834;DHT22;11079;51.092;3.458;2022-07-29T13:27:30;38.10;52.90
21834;DHT22;11079;51.092;3.458;2022-07-29T13:29:58;36.30;54.60
21834;DHT22;11079;51.092;3.458;2022-07-29T13:32:26;35.50;55.50
21834;DHT22;11079;51.092;3.458;2022-07-29T13:34:53;35.50;56.00
21834;DHT22;11079;51.092;3.458;2022-07-29T13:37:19;35.40;57.00
21834;DHT22;11079;51.092;3.458;2022-07-29T13:39:45;35.50;56.00
21834;DHT22;11079;51.092;3.458;2022-07-29T13:42:11;34.80;57.60
21834;DHT22;11079;51.092;3.458;2022-07-29T13:44:40;34.00;58.90
21834;DHT22;11079;51.092;3.458;2022-07-29T13:47:07;34.40;58.70
21834;DHT22;11079;51.092;3.458;2022-07-29T13:49:34;35.60;57.60
21834;DHT22;11079;51.092;3.458;2022-07-29T13:52:00;36.40;57.00
21834;DHT22;11079;51.092;3.458;2022-07-29T13:54:27;37.00;56.00
21834;DHT22;11079;51.092;3.458;2022-07-29T13:56:53;37.50;56.50
21834;DHT22;11079;51.092;3.458;2022-07-29T13:59:19;37.20;56.00
21834;DHT22;11079;51.092;3.458;2022-07-29T14:01:45;37.90;55.20
21834;DHT22;11079;51.092;3.458;2022-07-29T14:04:11;37.90;55.20
21834;DHT22;11079;51.092;3.458;2022-07-29T14:06:36;38.40;54.40
21834;DHT22;11079;51.092;3.458;2022-07-29T14:09:03;37.80;54.90
21834;DHT22;11079;51.092;3.458;2022-07-29T14:11:32;37.40;55.50
21834;DHT22;11079;51.092;3.458;2022-07-29T14:13:58;36.90;56.60
21834;DHT22;11079;51.092;3.458;2022-07-29T14:16:24;36.60;56.50
21834;DHT22;11079;51.092;3.458;2022-07-29T14:18:50;35.60;57.80
21834;DHT22;11079;51.092;3.458;2022-07-29T14:21:15;34.40;59.20
21834;DHT22;11079;51.092;3.458;2022-07-29T14:23:41;33.10;61.30
21834;DHT22;11079;51.092;3.458;2022-07-29T14:26:07;32.30;63.10
21834;DHT22;11079;51.092;3.458;2022-07-29T14:28:33;31.90;63.90
21834;DHT22;11079;51.092;3.458;2022-07-29T14:30:59;31.50;65.40
21834;DHT22;11079;51.092;3.458;2022-07-29T14:33:25;31.00;65.70
21834;DHT22;11079;51.092;3.458;2022-07-29T14:35:51;30.50;67.50
21834;DHT22;11079;51.092;3.458;2022-07-29T14:38:16;30.40;67.80
21834;DHT22;11079;51.092;3.458;2022-07-29T14:40:42;30.30;69.70
21834;DHT22;11079;51.092;3.458;2022-07-29T14:43:07;30.10;69.50
21834;DHT22;11079;51.092;3.458;2022-07-29T14:45:33;30.10;70.60
21834;DHT22;11079;51.092;3.458;2022-07-29T14:47:59;30.00;73.20
21834;DHT22;11079;51.092;3.458;2022-07-29T14:50:25;29.70;72.80
21834;DHT22;11079;51.092;3.458;2022-07-29T14:52:52;29.50;73.70
21834;DHT22;11079;51.092;3.458;2022-07-29T14:55:17;29.50;74.60
21834;DHT22;11079;51.092;3.458;2022-07-29T14:57:43;29.10;76.00
21834;DHT22;11079;51.092;3.458;2022-07-29T15:00:10;28.90;76.60
21834;DHT22;11079;51.092;3.458;2022-07-29T15:02:36;28.90;77.50
21834;DHT22;11079;51.092;3.458;2022-07-29T15:05:02;28.90;76.90
21834;DHT22;11079;51.092;3.458;2022-07-29T15:07:28;28.70;77.90
21834;DHT22;11079;51.092;3.458;2022-07-29T15:09:54;28.60;77.10
21834;DHT22;11079;51.092;3.458;2022-07-29T15:12:20;28.40;77.20
21834;DHT22;11079;51.092;3.458;2022-07-29T15:14:45;28.30;78.20
21834;DHT22;11079;51.092;3.458;2022-07-29T15:17:13;28.10;79.10
21834;DHT22;11079;51.092;3.458;2022-07-29T15:19:38;28.10;80.70
21834;DHT22;11079;51.092;3.458;2022-07-29T15:22:04;28.10;80.30
21834;DHT22;11079;51.092;3.458;2022-07-29T15:24:30;28.10;80.70
21834;DHT22;11079;51.092;3.458;2022-07-29T15:26:56;28.20;81.00
21834;DHT22;11079;51.092;3.458;2022-07-29T15:29:22;28.30;80.90
21834;DHT22;11079;51.092;3.458;2022-07-29T15:31:49;27.90;81.00
21834;DHT22;11079;51.092;3.458;2022-07-29T15:34:14;27.70;82.30
21834;DHT22;11079;51.092;3.458;2022-07-29T15:36:41;27.30;83.00
21834;DHT22;11079;51.092;3.458;2022-07-29T15:39:07;27.30;83.40
21834;DHT22;11079;51.092;3.458;2022-07-29T15:41:33;27.50;84.30
21834;DHT22;11079;51.092;3.458;2022-07-29T15:43:59;27.50;84.20
21834;DHT22;11079;51.092;3.458;2022-07-29T15:46:25;27.50;84.20
21834;DHT22;11079;51.092;3.458;2022-07-29T15:49:09;27.50;83.90
21834;DHT22;11079;51.092;3.458;2022-07-29T15:51:40;27.40;84.10
21834;DHT22;11079;51.092;3.458;2022-07-29T15:54:06;27.30;85.50
21834;DHT22;11079;51.092;3.458;2022-07-29T15:56:32;27.30;84.90
21834;DHT22;11079;51.092;3.458;2022-07-29T15:59:00;27.30;85.60
21834;DHT22;11079;51.092;3.458;2022-07-29T16:01:25;27.10;84.70
21834;DHT22;11079;51.092;3.458;2022-07-29T16:03:51;27.10;86.00
21834;DHT22;11079;51.092;3.458;2022-07-29T16:06:17;27.20;85.30
21834;DHT22;11079;51.092;3.458;2022-07-29T16:08:44;27.20;86.00
21834;DHT22;11079;51.092;3.458;2022-07-29T16:11:09;27.00;85.90
21834;DHT22;11079;51.092;3.458;2022-07-29T16:13:36;26.80;87.20
21834;DHT22;11079;51.092;3.458;2022-07-29T16:16:02;26.70;88.20